createdAt,value
2017-08-22T00:00:18.775Z,967.15
2017-08-22T00:00:59.388Z,967.12
2017-08-22T00:01:39.935Z,967.16
2017-08-22T00:02:20.518Z,967.15
2017-08-22T00:03:01.060Z,967.19
2017-08-22T00:03:41.645Z,967.17
2017-08-22T00:04:22.204Z,967.15
2017-08-22T00:05:02.755Z,967.13
2017-08-22T00:05:43.359Z,967.19
2017-08-22T00:06:23.935Z,967.13
2017-08-22T00:07:04.551Z,967.12
2017-08-22T00:07:45.112Z,967.14
2017-08-22T00:08:25.746Z,967.1
2017-08-22T00:09:06.302Z,967.09
2017-08-22T00:09:46.918Z,967.11
2017-08-22T00:10:27.422Z,967.12
2017-08-22T00:11:08.012Z,967.12
2017-08-22T00:11:48.551Z,967.12
2017-08-22T00:12:29.121Z,967.1
2017-08-22T00:13:09.696Z,967.08
2017-08-22T00:13:50.264Z,967.07
2017-08-22T00:14:30.840Z,967.06
2017-08-22T00:15:11.448Z,967.07
2017-08-22T00:15:52.013Z,967.09
2017-08-22T00:16:32.581Z,967.12
2017-08-22T00:17:13.845Z,967.13
2017-08-22T00:17:54.437Z,967.08
2017-08-22T00:18:35.016Z,967.11
2017-08-22T00:19:15.559Z,967.08
2017-08-22T00:19:56.129Z,967.09
2017-08-22T00:20:36.707Z,967.04
2017-08-22T00:21:17.278Z,967.05
2017-08-22T00:21:57.813Z,967.02
2017-08-22T00:22:38.372Z,967.03
2017-08-22T00:23:18.975Z,967.03
2017-08-22T00:23:59.489Z,967
2017-08-22T00:24:40.053Z,967.01
2017-08-22T00:25:20.602Z,967.02
2017-08-22T00:26:02.457Z,967.01
2017-08-22T00:26:43.017Z,967.03
2017-08-22T00:27:23.612Z,967
2017-08-22T00:28:04.204Z,967.01
2017-08-22T00:28:44.821Z,967
2017-08-22T00:29:25.414Z,966.98
2017-08-22T00:30:05.969Z,967.03
2017-08-22T00:30:46.575Z,967
2017-08-22T00:31:27.170Z,967
2017-08-22T00:32:07.780Z,967.02
2017-08-22T00:32:48.361Z,967
2017-08-22T00:33:28.929Z,967.04
2017-08-22T00:34:09.518Z,966.97
2017-08-22T00:34:50.040Z,966.97
2017-08-22T00:35:30.604Z,966.99
2017-08-22T00:36:11.169Z,967.01
2017-08-22T00:36:51.764Z,967.06
2017-08-22T00:37:32.327Z,967
2017-08-22T00:38:12.932Z,967.09
2017-08-22T00:38:53.512Z,967.07
2017-08-22T00:39:34.031Z,967.04
2017-08-22T00:40:14.573Z,967.08
2017-08-22T00:40:55.130Z,967.01
2017-08-22T00:41:35.689Z,967.05
2017-08-22T00:42:16.281Z,967.02
2017-08-22T00:42:56.875Z,967.02
2017-08-22T00:43:37.451Z,966.98
2017-08-22T00:44:18.020Z,967.02
2017-08-22T00:44:58.642Z,966.99
2017-08-22T00:45:39.193Z,967.06
2017-08-22T00:46:19.690Z,967.02
2017-08-22T00:47:00.324Z,966.97
2017-08-22T00:47:40.885Z,967
2017-08-22T00:48:21.485Z,967.01
2017-08-22T00:49:02.002Z,967.02
2017-08-22T00:49:42.541Z,967.01
2017-08-22T00:50:23.091Z,966.99
2017-08-22T00:51:03.681Z,966.98
2017-08-22T00:51:44.243Z,966.99
2017-08-22T00:52:24.872Z,966.97
2017-08-22T00:53:05.407Z,966.97
2017-08-22T00:53:45.953Z,966.97
2017-08-22T00:54:26.495Z,966.99
2017-08-22T00:55:07.036Z,966.95
2017-08-22T00:55:47.588Z,967.01
2017-08-22T00:56:28.182Z,967.02
2017-08-22T00:57:08.736Z,967.01
2017-08-22T00:57:49.351Z,966.95
2017-08-22T00:58:29.941Z,966.92
2017-08-22T00:59:10.451Z,966.98
2017-08-22T00:59:51.053Z,966.93
2017-08-22T01:00:31.617Z,966.92
2017-08-22T01:01:12.167Z,966.92
2017-08-22T01:01:52.725Z,966.91
2017-08-22T01:02:33.310Z,966.96
2017-08-22T01:03:13.887Z,966.93
2017-08-22T01:03:54.457Z,966.97
2017-08-22T01:04:34.996Z,966.98
2017-08-22T01:05:15.601Z,966.97
2017-08-22T01:05:56.158Z,967.02
2017-08-22T01:06:36.677Z,967.01
2017-08-22T01:07:17.204Z,966.99
2017-08-22T01:07:57.756Z,967
2017-08-22T01:08:38.320Z,967.02
2017-08-22T01:09:18.917Z,967.02
2017-08-22T01:09:59.464Z,966.99
2017-08-22T01:10:39.991Z,967.01
2017-08-22T01:11:20.603Z,966.95
2017-08-22T01:12:01.162Z,966.97
2017-08-22T01:12:41.740Z,966.96
2017-08-22T01:13:22.298Z,966.98
2017-08-22T01:14:02.907Z,967.01
2017-08-22T01:14:43.468Z,966.96
2017-08-22T01:15:24.064Z,966.99
2017-08-22T01:16:04.611Z,966.99
2017-08-22T01:16:45.186Z,966.97
2017-08-22T01:17:25.756Z,967
2017-08-22T01:18:06.348Z,967.04
2017-08-22T01:18:46.927Z,967
2017-08-22T01:19:27.487Z,966.98
2017-08-22T01:20:08.068Z,966.98
2017-08-22T01:20:48.660Z,966.93
2017-08-22T01:21:29.208Z,967
2017-08-22T01:22:09.774Z,966.95
2017-08-22T01:22:50.365Z,966.97
2017-08-22T01:23:30.914Z,967
2017-08-22T01:24:11.497Z,967.02
2017-08-22T01:24:51.996Z,967.03
2017-08-22T01:25:32.579Z,967.06
2017-08-22T01:26:13.159Z,967.02
2017-08-22T01:26:53.714Z,967.06
2017-08-22T01:27:34.252Z,967.06
2017-08-22T01:28:14.825Z,967.07
2017-08-22T01:28:55.345Z,967.03
2017-08-22T01:29:35.954Z,967.03
2017-08-22T01:30:16.466Z,967.04
2017-08-22T01:30:57.054Z,967.02
2017-08-22T01:31:37.617Z,967.03
2017-08-22T01:32:18.214Z,966.98
2017-08-22T01:32:58.773Z,966.97
2017-08-22T01:33:39.335Z,967
2017-08-22T01:34:19.956Z,967.01
2017-08-22T01:35:00.484Z,966.96
2017-08-22T01:35:41.039Z,967
2017-08-22T01:36:21.650Z,966.96
2017-08-22T01:37:02.249Z,966.96
2017-08-22T01:37:42.801Z,966.96
2017-08-22T01:38:23.382Z,966.94
2017-08-22T01:39:03.934Z,966.95
2017-08-22T01:39:44.497Z,967
2017-08-22T01:40:25.042Z,966.96
2017-08-22T01:41:06.430Z,966.97
2017-08-22T01:41:47.069Z,966.95
2017-08-22T01:42:27.588Z,966.91
2017-08-22T01:43:08.195Z,966.92
2017-08-22T01:43:48.750Z,966.89
2017-08-22T01:44:29.278Z,966.93
2017-08-22T01:45:09.805Z,966.91
2017-08-22T01:45:50.385Z,966.9
2017-08-22T01:46:30.959Z,966.9
2017-08-22T01:47:11.563Z,966.91
2017-08-22T01:47:52.192Z,966.95
2017-08-22T01:48:33.661Z,966.92
2017-08-22T01:49:14.281Z,966.89
2017-08-22T01:49:54.801Z,966.91
2017-08-22T01:50:36.089Z,966.91
2017-08-22T01:51:16.692Z,966.93
2017-08-22T01:51:57.302Z,966.9
2017-08-22T01:52:37.896Z,966.9
2017-08-22T01:53:18.477Z,966.93
2017-08-22T01:53:59.044Z,966.91
2017-08-22T01:54:39.614Z,966.89
2017-08-22T01:55:20.202Z,966.89
2017-08-22T01:56:00.748Z,966.87
2017-08-22T01:56:41.349Z,966.89
2017-08-22T01:57:21.929Z,966.86
2017-08-22T01:58:02.491Z,966.86
2017-08-22T01:58:43.061Z,966.9
2017-08-22T01:59:23.632Z,966.9
2017-08-22T02:00:04.255Z,966.88
2017-08-22T02:00:44.880Z,966.88
2017-08-22T02:01:25.439Z,966.86
2017-08-22T02:02:05.985Z,966.91
2017-08-22T02:02:46.567Z,966.91
2017-08-22T02:03:27.089Z,966.88
2017-08-22T02:04:07.654Z,966.88
2017-08-22T02:04:48.196Z,966.85
2017-08-22T02:05:28.799Z,966.85
2017-08-22T02:06:09.380Z,966.87
2017-08-22T02:06:49.947Z,966.86
2017-08-22T02:07:30.496Z,966.85
2017-08-22T02:08:11.091Z,966.78
2017-08-22T02:08:51.673Z,966.83
2017-08-22T02:09:32.252Z,966.81
2017-08-22T02:10:12.888Z,966.82
2017-08-22T02:10:53.456Z,966.8
2017-08-22T02:11:34.070Z,966.83
2017-08-22T02:12:14.700Z,966.82
2017-08-22T02:12:55.242Z,966.81
2017-08-22T02:13:35.812Z,966.82
2017-08-22T02:14:16.396Z,966.84
2017-08-22T02:14:56.936Z,966.85
2017-08-22T02:15:37.530Z,966.81
2017-08-22T02:16:18.111Z,966.84
2017-08-22T02:16:58.650Z,966.82
2017-08-22T02:17:39.181Z,966.82
2017-08-22T02:18:19.782Z,966.82
2017-08-22T02:19:00.311Z,966.82
2017-08-22T02:19:40.878Z,966.82
2017-08-22T02:20:21.485Z,966.81
2017-08-22T02:21:02.090Z,966.83
2017-08-22T02:21:42.642Z,966.75
2017-08-22T02:22:23.222Z,966.79
2017-08-22T02:23:03.868Z,966.75
2017-08-22T02:23:44.420Z,966.76
2017-08-22T02:24:25.002Z,966.76
2017-08-22T02:25:05.621Z,966.75
2017-08-22T02:25:46.143Z,966.75
2017-08-22T02:26:26.700Z,966.75
2017-08-22T02:27:07.272Z,966.73
2017-08-22T02:27:47.858Z,966.74
2017-08-22T02:28:28.426Z,966.75
2017-08-22T02:29:09.017Z,966.73
2017-08-22T02:29:49.597Z,966.78
2017-08-22T02:30:30.120Z,966.72
2017-08-22T02:31:11.575Z,966.74
2017-08-22T02:31:52.126Z,966.73
2017-08-22T02:32:33.560Z,966.74
2017-08-22T02:33:14.185Z,966.74
2017-08-22T02:33:54.692Z,966.75
2017-08-22T02:34:35.264Z,966.75
2017-08-22T02:35:15.854Z,966.77
2017-08-22T02:35:56.455Z,966.75
2017-08-22T02:36:36.991Z,966.73
2017-08-22T02:37:17.683Z,966.74
2017-08-22T02:37:58.231Z,966.73
2017-08-22T02:38:38.826Z,966.75
2017-08-22T02:39:19.399Z,966.72
2017-08-22T02:39:59.970Z,966.73
2017-08-22T02:40:40.591Z,966.7
2017-08-22T02:41:21.146Z,966.71
2017-08-22T02:42:01.741Z,966.68
2017-08-22T02:42:42.276Z,966.71
2017-08-22T02:43:22.856Z,966.68
2017-08-22T02:44:03.392Z,966.72
2017-08-22T02:44:43.981Z,966.69
2017-08-22T02:45:24.517Z,966.7
2017-08-22T02:46:05.059Z,966.74
2017-08-22T02:46:45.657Z,966.73
2017-08-22T02:47:26.200Z,966.76
2017-08-22T02:48:06.768Z,966.71
2017-08-22T02:48:47.403Z,966.7
2017-08-22T02:49:27.939Z,966.65
2017-08-22T02:50:08.523Z,966.69
2017-08-22T02:50:49.144Z,966.67
2017-08-22T02:51:29.821Z,966.66
2017-08-22T02:52:10.416Z,966.66
2017-08-22T02:52:50.964Z,966.68
2017-08-22T02:53:31.521Z,966.69
2017-08-22T02:54:12.144Z,966.65
2017-08-22T02:54:52.695Z,966.63
2017-08-22T02:55:33.327Z,966.64
2017-08-22T02:56:13.887Z,966.6
2017-08-22T02:56:54.581Z,966.58
2017-08-22T02:57:35.299Z,966.56
2017-08-22T02:58:15.916Z,966.57
2017-08-22T02:58:56.437Z,966.54
2017-08-22T02:59:37.044Z,966.62
2017-08-22T03:00:17.614Z,966.54
2017-08-22T03:00:58.241Z,966.56
2017-08-22T03:01:38.783Z,966.52
2017-08-22T03:02:19.341Z,966.51
2017-08-22T03:02:59.949Z,966.52
2017-08-22T03:03:40.480Z,966.55
2017-08-22T03:04:21.058Z,966.54
2017-08-22T03:05:01.620Z,966.54
2017-08-22T03:05:42.169Z,966.55
2017-08-22T03:06:22.778Z,966.52
2017-08-22T03:07:03.345Z,966.52
2017-08-22T03:07:43.911Z,966.55
2017-08-22T03:08:24.459Z,966.56
2017-08-22T03:09:05.031Z,966.58
2017-08-22T03:09:45.676Z,966.54
2017-08-22T03:10:26.252Z,966.59
2017-08-22T03:11:06.800Z,966.58
2017-08-22T03:11:47.391Z,966.58
2017-08-22T03:12:27.954Z,966.57
2017-08-22T03:13:08.545Z,966.54
2017-08-22T03:13:49.152Z,966.55
2017-08-22T03:14:29.755Z,966.55
2017-08-22T03:15:10.332Z,966.55
2017-08-22T03:15:50.902Z,966.53
2017-08-22T03:16:31.484Z,966.57
2017-08-22T03:17:12.093Z,966.52
2017-08-22T03:17:52.687Z,966.54
2017-08-22T03:18:33.316Z,966.56
2017-08-22T03:19:13.957Z,966.55
2017-08-22T03:19:54.521Z,966.56
2017-08-22T03:20:35.189Z,966.57
2017-08-22T03:21:15.875Z,966.57
2017-08-22T03:21:56.403Z,966.58
2017-08-22T03:22:37.000Z,966.61
2017-08-22T03:23:17.832Z,966.64
2017-08-22T03:23:58.564Z,966.59
2017-08-22T03:24:39.113Z,966.57
2017-08-22T03:25:19.674Z,966.62
2017-08-22T03:26:01.149Z,966.64
2017-08-22T03:26:41.767Z,966.58
2017-08-22T03:27:22.450Z,966.6
2017-08-22T03:28:03.134Z,966.63
2017-08-22T03:28:43.837Z,966.62
2017-08-22T03:29:24.439Z,966.64
2017-08-22T03:30:05.139Z,966.62
2017-08-22T03:30:45.958Z,966.64
2017-08-22T03:31:26.514Z,966.65
2017-08-22T03:32:07.189Z,966.63
2017-08-22T03:32:47.904Z,966.68
2017-08-22T03:33:28.690Z,966.66
2017-08-22T03:34:09.351Z,966.71
2017-08-22T03:34:49.875Z,966.7
2017-08-22T03:35:30.544Z,966.65
2017-08-22T03:36:11.155Z,966.67
2017-08-22T03:36:51.788Z,966.7
2017-08-22T03:37:32.345Z,966.65
2017-08-22T03:38:13.065Z,966.66
2017-08-22T03:38:53.606Z,966.68
2017-08-22T03:39:34.180Z,966.64
2017-08-22T03:40:14.816Z,966.66
2017-08-22T03:40:55.592Z,966.63
2017-08-22T03:41:36.278Z,966.66
2017-08-22T03:42:16.800Z,966.67
2017-08-22T03:42:57.405Z,966.63
2017-08-22T03:43:37.966Z,966.69
2017-08-22T03:44:18.530Z,966.68
2017-08-22T03:44:59.156Z,966.69
2017-08-22T03:45:39.722Z,966.67
2017-08-22T03:46:20.968Z,966.73
2017-08-22T03:47:01.522Z,966.69
2017-08-22T03:47:42.174Z,966.69
2017-08-22T03:48:22.738Z,966.71
2017-08-22T03:49:03.305Z,966.7
2017-08-22T03:49:44.253Z,966.68
2017-08-22T03:50:24.600Z,966.71
2017-08-22T03:51:05.141Z,966.7
2017-08-22T03:51:45.813Z,966.7
2017-08-22T03:52:26.565Z,966.69
2017-08-22T03:53:07.241Z,966.7
2017-08-22T03:53:47.778Z,966.69
2017-08-22T03:54:28.349Z,966.69
2017-08-22T03:55:08.942Z,966.68
2017-08-22T03:55:49.637Z,966.71
2017-08-22T03:56:30.310Z,966.73
2017-08-22T03:57:11.175Z,966.73
2017-08-22T03:57:52.005Z,966.74
2017-08-22T03:58:32.446Z,966.74
2017-08-22T03:59:13.323Z,966.74
2017-08-22T03:59:53.794Z,966.74
2017-08-22T04:00:34.355Z,966.76
2017-08-22T04:01:15.002Z,966.76
2017-08-22T04:01:55.801Z,966.76
2017-08-22T04:02:36.413Z,966.74
2017-08-22T04:03:17.004Z,966.74
2017-08-22T04:03:57.730Z,966.78
2017-08-22T04:04:38.280Z,966.77
2017-08-22T04:05:18.825Z,966.77
2017-08-22T04:05:59.460Z,966.74
2017-08-22T04:06:40.116Z,966.71
2017-08-22T04:07:21.405Z,966.73
2017-08-22T04:08:02.119Z,966.73
2017-08-22T04:08:42.970Z,966.71
2017-08-22T04:09:23.416Z,966.72
2017-08-22T04:10:04.011Z,966.74
2017-08-22T04:10:44.719Z,966.71
2017-08-22T04:11:25.266Z,966.72
2017-08-22T04:12:05.844Z,966.78
2017-08-22T04:12:47.109Z,966.74
2017-08-22T04:13:27.721Z,966.76
2017-08-22T04:14:08.501Z,966.75
2017-08-22T04:14:49.669Z,966.76
2017-08-22T04:15:30.185Z,966.75
2017-08-22T04:16:10.749Z,966.78
2017-08-22T04:16:51.329Z,966.76
2017-08-22T04:17:31.892Z,966.77
2017-08-22T04:18:13.492Z,966.78
2017-08-22T04:18:54.067Z,966.77
2017-08-22T04:19:34.697Z,966.79
2017-08-22T04:20:15.264Z,966.73
2017-08-22T04:20:55.971Z,966.75
2017-08-22T04:21:36.501Z,966.78
2017-08-22T04:22:17.074Z,966.74
2017-08-22T04:22:57.643Z,966.75
2017-08-22T04:23:38.220Z,966.77
2017-08-22T04:24:18.803Z,966.76
2017-08-22T04:24:59.402Z,966.74
2017-08-22T04:25:40.068Z,966.74
2017-08-22T04:26:20.611Z,966.75
2017-08-22T04:27:01.308Z,966.8
2017-08-22T04:27:42.003Z,966.79
2017-08-22T04:28:22.525Z,966.83
2017-08-22T04:29:03.347Z,966.76
2017-08-22T04:29:43.884Z,966.8
2017-08-22T04:30:24.647Z,966.78
2017-08-22T04:31:05.235Z,966.81
2017-08-22T04:31:46.003Z,966.8
2017-08-22T04:32:26.452Z,966.79
2017-08-22T04:33:07.042Z,966.83
2017-08-22T04:33:48.391Z,966.82
2017-08-22T04:34:29.041Z,966.8
2017-08-22T04:35:09.584Z,966.82
2017-08-22T04:35:50.264Z,966.77
2017-08-22T04:36:30.781Z,966.81
2017-08-22T04:37:11.326Z,966.77
2017-08-22T04:37:52.079Z,966.79
2017-08-22T04:38:32.723Z,966.72
2017-08-22T04:39:13.328Z,966.71
2017-08-22T04:39:53.868Z,966.73
2017-08-22T04:40:34.373Z,966.7
2017-08-22T04:41:14.944Z,966.71
2017-08-22T04:41:55.661Z,966.76
2017-08-22T04:42:36.327Z,966.73
2017-08-22T04:43:16.938Z,966.74
2017-08-22T04:43:57.464Z,966.78
2017-08-22T04:44:38.053Z,966.73
2017-08-22T04:45:18.666Z,966.76
2017-08-22T04:45:59.431Z,966.72
2017-08-22T04:46:39.914Z,966.75
2017-08-22T04:47:20.523Z,966.75
2017-08-22T04:48:01.285Z,966.74
2017-08-22T04:48:41.857Z,966.77
2017-08-22T04:49:22.498Z,966.7
2017-08-22T04:50:03.112Z,966.75
2017-08-22T04:50:43.832Z,966.72
2017-08-22T04:51:24.479Z,966.75
2017-08-22T04:52:05.031Z,966.74
2017-08-22T04:52:45.743Z,966.74
2017-08-22T04:53:26.197Z,966.75
2017-08-22T04:54:06.759Z,966.74
2017-08-22T04:54:47.359Z,966.7
2017-08-22T04:55:27.968Z,966.68
2017-08-22T04:56:08.651Z,966.75
2017-08-22T04:56:49.148Z,966.73
2017-08-22T04:57:29.723Z,966.71
2017-08-22T04:58:10.484Z,966.7
2017-08-22T04:58:51.122Z,966.73
2017-08-22T04:59:31.647Z,966.71
2017-08-22T05:00:12.313Z,966.7
2017-08-22T05:00:52.800Z,966.71
2017-08-22T05:01:33.654Z,966.74
2017-08-22T05:02:14.256Z,966.67
2017-08-22T05:02:54.750Z,966.71
2017-08-22T05:03:35.294Z,966.68
2017-08-22T05:04:15.898Z,966.7
2017-08-22T05:04:56.515Z,966.7
2017-08-22T05:05:37.098Z,966.68
2017-08-22T05:06:17.655Z,966.68
2017-08-22T05:06:58.260Z,966.67
2017-08-22T05:07:38.821Z,966.72
2017-08-22T05:08:19.421Z,966.67
2017-08-22T05:08:59.967Z,966.69
2017-08-22T05:09:40.556Z,966.71
2017-08-22T05:10:21.160Z,966.66
2017-08-22T05:11:01.799Z,966.68
2017-08-22T05:11:42.324Z,966.68
2017-08-22T05:12:22.925Z,966.74
2017-08-22T05:13:03.600Z,966.7
2017-08-22T05:13:44.130Z,966.73
2017-08-22T05:14:24.727Z,966.76
2017-08-22T05:15:05.339Z,966.76
2017-08-22T05:15:45.863Z,966.76
2017-08-22T05:16:26.577Z,966.76
2017-08-22T05:17:07.137Z,966.73
2017-08-22T05:17:47.656Z,966.73
2017-08-22T05:18:28.324Z,966.77
2017-08-22T05:19:08.912Z,966.74
2017-08-22T05:19:49.444Z,966.78
2017-08-22T05:20:30.726Z,966.77
2017-08-22T05:21:11.715Z,966.77
2017-08-22T05:21:52.255Z,966.76
2017-08-22T05:22:32.929Z,966.77
2017-08-22T05:23:13.594Z,966.78
2017-08-22T05:23:54.160Z,966.77
2017-08-22T05:24:34.854Z,966.77
2017-08-22T05:25:15.455Z,966.76
2017-08-22T05:25:55.969Z,966.76
2017-08-22T05:26:36.540Z,966.76
2017-08-22T05:27:17.210Z,966.78
2017-08-22T05:27:57.805Z,966.77
2017-08-22T05:28:38.504Z,966.76
2017-08-22T05:29:19.061Z,966.79
2017-08-22T05:29:59.628Z,966.8
2017-08-22T05:30:40.120Z,966.81
2017-08-22T05:31:20.792Z,966.82
2017-08-22T05:32:01.295Z,966.81
2017-08-22T05:32:41.843Z,966.8
2017-08-22T05:33:22.425Z,966.76
2017-08-22T05:34:02.999Z,966.79
2017-08-22T05:34:43.617Z,966.78
2017-08-22T05:35:24.283Z,966.84
2017-08-22T05:36:04.777Z,966.81
2017-08-22T05:36:45.404Z,966.84
2017-08-22T05:37:25.979Z,966.8
2017-08-22T05:38:06.663Z,966.86
2017-08-22T05:38:48.005Z,966.87
2017-08-22T05:39:28.543Z,966.88
2017-08-22T05:40:09.159Z,966.87
2017-08-22T05:40:49.732Z,966.89
2017-08-22T05:41:30.294Z,966.85
2017-08-22T05:42:12.731Z,966.87
2017-08-22T05:42:53.278Z,966.88
2017-08-22T05:43:33.857Z,966.89
2017-08-22T05:44:14.405Z,966.87
2017-08-22T05:44:55.048Z,966.81
2017-08-22T05:45:35.778Z,966.83
2017-08-22T05:46:16.300Z,966.83
2017-08-22T05:46:56.865Z,966.8
2017-08-22T05:47:37.449Z,966.82
2017-08-22T05:48:17.982Z,966.85
2017-08-22T05:48:58.542Z,966.83
2017-08-22T05:49:39.156Z,966.83
2017-08-22T05:50:19.731Z,966.85
2017-08-22T05:51:00.271Z,966.82
2017-08-22T05:51:40.841Z,966.79
2017-08-22T05:52:21.419Z,966.79
2017-08-22T05:53:01.965Z,966.8
2017-08-22T05:53:42.545Z,966.77
2017-08-22T05:54:23.107Z,966.78
2017-08-22T05:55:03.681Z,966.76
2017-08-22T05:55:44.323Z,966.82
2017-08-22T05:56:24.847Z,966.8
2017-08-22T05:57:05.440Z,966.8
2017-08-22T05:57:46.003Z,966.78
2017-08-22T05:58:26.605Z,966.74
2017-08-22T05:59:07.135Z,966.75
2017-08-22T05:59:47.741Z,966.78
2017-08-22T06:00:28.306Z,966.79
2017-08-22T06:01:08.839Z,966.75
2017-08-22T06:01:49.381Z,966.77
2017-08-22T06:02:29.949Z,966.77
2017-08-22T06:03:10.525Z,966.79
2017-08-22T06:03:51.069Z,966.76
2017-08-22T06:04:31.703Z,966.78
2017-08-22T06:05:12.239Z,966.76
2017-08-22T06:05:52.792Z,966.77
2017-08-22T06:06:33.359Z,966.81
2017-08-22T06:07:13.916Z,966.75
2017-08-22T06:07:54.465Z,966.78
2017-08-22T06:08:35.062Z,966.79
2017-08-22T06:09:15.653Z,966.79
2017-08-22T06:09:56.273Z,966.83
2017-08-22T06:10:36.840Z,966.85
2017-08-22T06:11:17.402Z,966.84
2017-08-22T06:11:57.987Z,966.86
2017-08-22T06:12:38.624Z,966.86
2017-08-22T06:13:19.167Z,966.86
2017-08-22T06:13:59.737Z,966.86
2017-08-22T06:14:40.293Z,966.87
2017-08-22T06:15:20.905Z,966.85
2017-08-22T06:16:01.470Z,966.87
2017-08-22T06:16:42.066Z,966.83
2017-08-22T06:17:22.637Z,966.85
2017-08-22T06:18:03.192Z,966.84
2017-08-22T06:18:43.758Z,966.83
2017-08-22T06:19:24.311Z,966.82
2017-08-22T06:20:04.888Z,966.8
2017-08-22T06:20:45.447Z,966.78
2017-08-22T06:21:26.032Z,966.79
2017-08-22T06:22:06.584Z,966.8
2017-08-22T06:22:47.145Z,966.81
2017-08-22T06:23:27.728Z,966.77
2017-08-22T06:24:08.303Z,966.78
2017-08-22T06:24:48.885Z,966.81
2017-08-22T06:25:29.453Z,966.81
2017-08-22T06:26:10.021Z,966.82
2017-08-22T06:26:50.581Z,966.81
2017-08-22T06:27:31.120Z,966.79
2017-08-22T06:28:11.697Z,966.82
2017-08-22T06:28:52.276Z,966.77
2017-08-22T06:29:32.827Z,966.78
2017-08-22T06:30:13.372Z,966.78
2017-08-22T06:30:53.908Z,966.79
2017-08-22T06:31:34.462Z,966.76
2017-08-22T06:32:15.026Z,966.73
2017-08-22T06:32:55.624Z,966.74
2017-08-22T06:33:36.247Z,966.75
2017-08-22T06:34:16.792Z,966.7
2017-08-22T06:34:57.337Z,966.72
2017-08-22T06:35:37.914Z,966.75
2017-08-22T06:36:18.510Z,966.7
2017-08-22T06:36:59.052Z,966.72
2017-08-22T06:37:39.627Z,966.73
2017-08-22T06:38:20.194Z,966.67
2017-08-22T06:39:00.768Z,966.71
2017-08-22T06:39:41.347Z,966.65
2017-08-22T06:40:21.923Z,966.67
2017-08-22T06:41:02.488Z,966.71
2017-08-22T06:41:43.057Z,966.67
2017-08-22T06:42:23.612Z,966.69
2017-08-22T06:43:04.181Z,966.65
2017-08-22T06:43:44.759Z,966.64
2017-08-22T06:44:25.364Z,966.66
2017-08-22T06:45:05.928Z,966.65
2017-08-22T06:45:46.492Z,966.63
2017-08-22T06:46:27.045Z,966.63
2017-08-22T06:47:07.627Z,966.68
2017-08-22T06:47:48.178Z,966.66
2017-08-22T06:48:28.719Z,966.66
2017-08-22T06:49:09.272Z,966.67
2017-08-22T06:49:49.879Z,966.68
2017-08-22T06:50:30.423Z,966.64
2017-08-22T06:51:10.972Z,966.7
2017-08-22T06:51:51.520Z,966.66
2017-08-22T06:52:32.127Z,966.67
2017-08-22T06:53:12.636Z,966.69
2017-08-22T06:53:53.195Z,966.64
2017-08-22T06:54:33.756Z,966.65
2017-08-22T06:55:14.305Z,966.64
2017-08-22T06:55:54.903Z,966.64
2017-08-22T06:56:35.468Z,966.65
2017-08-22T06:57:16.031Z,966.65
2017-08-22T06:57:56.617Z,966.67
2017-08-22T06:58:37.406Z,966.68
2017-08-22T06:59:17.935Z,966.7
2017-08-22T06:59:58.480Z,966.67
2017-08-22T07:00:39.042Z,966.69
2017-08-22T07:01:19.594Z,966.7
2017-08-22T07:02:00.149Z,966.73
2017-08-22T07:02:40.695Z,966.72
2017-08-22T07:03:21.259Z,966.69
2017-08-22T07:04:01.843Z,966.71
2017-08-22T07:04:42.384Z,966.72
2017-08-22T07:05:22.942Z,966.69
2017-08-22T07:06:03.540Z,966.7
2017-08-22T07:06:44.066Z,966.7
2017-08-22T07:07:24.614Z,966.69
2017-08-22T07:08:05.172Z,966.7
2017-08-22T07:08:45.738Z,966.66
2017-08-22T07:09:26.289Z,966.7
2017-08-22T07:10:06.869Z,966.7
2017-08-22T07:10:47.429Z,966.67
2017-08-22T07:11:28.030Z,966.69
2017-08-22T07:12:08.599Z,966.7
2017-08-22T07:12:49.169Z,966.71
2017-08-22T07:13:29.745Z,966.7
2017-08-22T07:14:10.269Z,966.68
2017-08-22T07:14:50.885Z,966.71
2017-08-22T07:15:31.416Z,966.67
2017-08-22T07:16:11.986Z,966.71
2017-08-22T07:16:52.489Z,966.72
2017-08-22T07:17:33.077Z,966.71
2017-08-22T07:18:13.631Z,966.71
2017-08-22T07:18:54.178Z,966.69
2017-08-22T07:19:34.740Z,966.7
2017-08-22T07:20:15.311Z,966.63
2017-08-22T07:20:55.861Z,966.67
2017-08-22T07:21:36.388Z,966.64
2017-08-22T07:22:16.969Z,966.64
2017-08-22T07:22:57.529Z,966.66
2017-08-22T07:23:38.062Z,966.66
2017-08-22T07:24:18.626Z,966.65
2017-08-22T07:25:00.056Z,966.63
2017-08-22T07:25:40.585Z,966.64
2017-08-22T07:26:21.153Z,966.65
2017-08-22T07:27:01.721Z,966.66
2017-08-22T07:27:42.289Z,966.63
2017-08-22T07:28:22.925Z,966.67
2017-08-22T07:29:03.466Z,966.6
2017-08-22T07:29:44.035Z,966.62
2017-08-22T07:30:24.623Z,966.64
2017-08-22T07:31:05.169Z,966.61
2017-08-22T07:31:45.720Z,966.55
2017-08-22T07:32:26.325Z,966.62
2017-08-22T07:33:06.861Z,966.61
2017-08-22T07:33:47.438Z,966.6
2017-08-22T07:34:28.016Z,966.59
2017-08-22T07:35:08.572Z,966.6
2017-08-22T07:35:49.161Z,966.54
2017-08-22T07:36:29.744Z,966.57
2017-08-22T07:37:10.301Z,966.55
2017-08-22T07:37:51.657Z,966.56
2017-08-22T07:38:32.191Z,966.59
2017-08-22T07:39:12.769Z,966.57
2017-08-22T07:39:53.387Z,966.59
2017-08-22T07:40:33.903Z,966.6
2017-08-22T07:41:14.445Z,966.56
2017-08-22T07:41:55.011Z,966.56
2017-08-22T07:42:35.563Z,966.59
2017-08-22T07:43:16.126Z,966.59
2017-08-22T07:43:56.693Z,966.58
2017-08-22T07:44:37.253Z,966.58
2017-08-22T07:45:17.802Z,966.57
2017-08-22T07:45:58.374Z,966.55
2017-08-22T07:46:38.946Z,966.53
2017-08-22T07:47:19.501Z,966.51
2017-08-22T07:48:00.028Z,966.52
2017-08-22T07:48:40.615Z,966.48
2017-08-22T07:49:21.172Z,966.51
2017-08-22T07:50:01.733Z,966.49
2017-08-22T07:50:42.287Z,966.47
2017-08-22T07:51:22.846Z,966.47
2017-08-22T07:52:03.411Z,966.44
2017-08-22T07:52:43.948Z,966.44
2017-08-22T07:53:24.548Z,966.43
2017-08-22T07:54:05.095Z,966.42
2017-08-22T07:54:45.649Z,966.41
2017-08-22T07:55:26.210Z,966.44
2017-08-22T07:56:06.801Z,966.41
2017-08-22T07:56:47.334Z,966.46
2017-08-22T07:57:27.932Z,966.43
2017-08-22T07:58:08.518Z,966.44
2017-08-22T07:58:49.074Z,966.45
2017-08-22T07:59:29.653Z,966.42
2017-08-22T08:00:10.287Z,966.42
2017-08-22T08:00:50.834Z,966.44
2017-08-22T08:01:31.399Z,966.45
2017-08-22T08:02:11.955Z,966.44
2017-08-22T08:02:52.484Z,966.46
2017-08-22T08:03:33.039Z,966.42
2017-08-22T08:04:13.621Z,966.43
2017-08-22T08:04:54.128Z,966.38
2017-08-22T08:05:34.759Z,966.38
2017-08-22T08:06:15.339Z,966.4
2017-08-22T08:06:55.853Z,966.39
2017-08-22T08:07:36.441Z,966.39
2017-08-22T08:08:16.955Z,966.42
2017-08-22T08:08:57.548Z,966.38
2017-08-22T08:09:38.110Z,966.39
2017-08-22T08:10:18.674Z,966.4
2017-08-22T08:10:59.245Z,966.39
2017-08-22T08:11:39.805Z,966.41
2017-08-22T08:12:20.385Z,966.39
2017-08-22T08:13:00.910Z,966.38
2017-08-22T08:13:41.529Z,966.4
2017-08-22T08:14:22.063Z,966.34
2017-08-22T08:15:02.623Z,966.33
2017-08-22T08:15:43.194Z,966.29
2017-08-22T08:16:23.746Z,966.3
2017-08-22T08:17:04.305Z,966.26
2017-08-22T08:17:44.844Z,966.27
2017-08-22T08:18:25.391Z,966.26
2017-08-22T08:19:05.970Z,966.28
2017-08-22T08:19:46.541Z,966.26
2017-08-22T08:20:27.120Z,966.25
2017-08-22T08:21:07.692Z,966.29
2017-08-22T08:21:48.265Z,966.29
2017-08-22T08:22:28.844Z,966.31
2017-08-22T08:23:09.416Z,966.26
2017-08-22T08:23:49.989Z,966.27
2017-08-22T08:24:30.556Z,966.27
2017-08-22T08:25:11.139Z,966.27
2017-08-22T08:25:51.720Z,966.27
2017-08-22T08:26:32.290Z,966.26
2017-08-22T08:27:12.853Z,966.27
2017-08-22T08:27:53.393Z,966.26
2017-08-22T08:28:33.957Z,966.27